sensor_id;sensor_type;location;lat;lon;timestamp;P1;durP1;ratioP1;P2;durP2;ratioP2
70535;SDS011;58089;48.752;11.338;2024-02-15T00:01:51;6.43;;;3.10;;
70535;SDS011;58089;48.752;11.338;2024-02-15T00:04:16;6.37;;;3.20;;
70535;SDS011;58089;48.752;11.338;2024-02-15T00:06:42;8.10;;;3.65;;
70535;SDS011;58089;48.752;11.338;2024-02-15T00:09:09;8.25;;;3.58;;
70535;SDS011;58089;48.752;11.338;2024-02-15T00:11:34;7.70;;;4.03;;
70535;SDS011;58089;48.752;11.338;2024-02-15T00:13:59;8.37;;;4.67;;
70535;SDS011;58089;48.752;11.338;2024-02-15T00:16:25;11.20;;;5.27;;
70535;SDS011;58089;48.752;11.338;2024-02-15T00:18:52;11.73;;;5.85;;
70535;SDS011;58089;48.752;11.338;2024-02-15T00:21:19;11.77;;;4.60;;
70535;SDS011;58089;48.752;11.338;2024-02-15T00:23:45;8.17;;;3.87;;
70535;SDS011;58089;48.752;11.338;2024-02-15T00:26:10;7.10;;;3.20;;
70535;SDS011;58089;48.752;11.338;2024-02-15T00:28:37;7.43;;;3.92;;
70535;SDS011;58089;48.752;11.338;2024-02-15T00:31:02;7.40;;;3.77;;
70535;SDS011;58089;48.752;11.338;2024-02-15T00:33:28;7.75;;;3.60;;
70535;SDS011;58089;48.752;11.338;2024-02-15T00:35:54;8.73;;;4.40;;
70535;SDS011;58089;48.752;11.338;2024-02-15T00:38:19;9.23;;;3.95;;
70535;SDS011;58089;48.752;11.338;2024-02-15T00:40:44;9.77;;;3.80;;
70535;SDS011;58089;48.752;11.338;2024-02-15T00:43:10;8.07;;;4.10;;
70535;SDS011;58089;48.752;11.338;2024-02-15T00:45:36;7.20;;;3.65;;
70535;SDS011;58089;48.752;11.338;2024-02-15T00:48:01;7.33;;;3.63;;
70535;SDS011;58089;48.752;11.338;2024-02-15T00:50:26;8.50;;;4.07;;
70535;SDS011;58089;48.752;11.338;2024-02-15T00:52:52;7.77;;;3.70;;
70535;SDS011;58089;48.752;11.338;2024-02-15T00:55:17;8.17;;;3.60;;
70535;SDS011;58089;48.752;11.338;2024-02-15T00:57:44;7.18;;;3.25;;
70535;SDS011;58089;48.752;11.338;2024-02-15T01:00:09;8.37;;;4.13;;
70535;SDS011;58089;48.752;11.338;2024-02-15T01:02:35;7.78;;;3.63;;
70535;SDS011;58089;48.752;11.338;2024-02-15T01:05:01;7.53;;;3.67;;
70535;SDS011;58089;48.752;11.338;2024-02-15T01:07:26;6.77;;;3.37;;
70535;SDS011;58089;48.752;11.338;2024-02-15T01:09:52;7.90;;;3.50;;
70535;SDS011;58089;48.752;11.338;2024-02-15T01:12:17;7.43;;;3.30;;
70535;SDS011;58089;48.752;11.338;2024-02-15T01:14:43;6.50;;;3.00;;
70535;SDS011;58089;48.752;11.338;2024-02-15T01:17:08;7.70;;;3.13;;
70535;SDS011;58089;48.752;11.338;2024-02-15T01:19:34;8.20;;;3.30;;
70535;SDS011;58089;48.752;11.338;2024-02-15T01:21:59;6.70;;;2.60;;
70535;SDS011;58089;48.752;11.338;2024-02-15T01:24:25;6.55;;;2.60;;
70535;SDS011;58089;48.752;11.338;2024-02-15T01:26:50;6.73;;;2.80;;
70535;SDS011;58089;48.752;11.338;2024-02-15T01:29:15;5.87;;;3.07;;
70535;SDS011;58089;48.752;11.338;2024-02-15T01:31:40;5.70;;;2.47;;
70535;SDS011;58089;48.752;11.338;2024-02-15T01:34:06;6.77;;;2.90;;
70535;SDS011;58089;48.752;11.338;2024-02-15T01:36:31;5.87;;;2.50;;
70535;SDS011;58089;48.752;11.338;2024-02-15T01:38:56;5.67;;;2.50;;
70535;SDS011;58089;48.752;11.338;2024-02-15T01:41:22;5.53;;;2.70;;
70535;SDS011;58089;48.752;11.338;2024-02-15T01:43:48;6.28;;;2.88;;
70535;SDS011;58089;48.752;11.338;2024-02-15T01:46:15;6.03;;;2.67;;
70535;SDS011;58089;48.752;11.338;2024-02-15T01:48:40;5.93;;;2.80;;
70535;SDS011;58089;48.752;11.338;2024-02-15T01:51:07;6.25;;;2.85;;
70535;SDS011;58089;48.752;11.338;2024-02-15T01:53:33;5.82;;;2.78;;
70535;SDS011;58089;48.752;11.338;2024-02-15T01:55:59;6.03;;;2.90;;
70535;SDS011;58089;48.752;11.338;2024-02-15T01:58:25;6.70;;;3.00;;
70535;SDS011;58089;48.752;11.338;2024-02-15T02:00:52;5.50;;;2.78;;
70535;SDS011;58089;48.752;11.338;2024-02-15T02:03:18;5.30;;;2.30;;
70535;SDS011;58089;48.752;11.338;2024-02-15T02:05:46;5.80;;;2.85;;
70535;SDS011;58089;48.752;11.338;2024-02-15T02:08:12;5.68;;;2.70;;
70535;SDS011;58089;48.752;11.338;2024-02-15T02:10:37;6.60;;;3.00;;
70535;SDS011;58089;48.752;11.338;2024-02-15T02:13:06;5.90;;;2.70;;
70535;SDS011;58089;48.752;11.338;2024-02-15T02:15:31;5.70;;;2.70;;
70535;SDS011;58089;48.752;11.338;2024-02-15T02:17:57;8.70;;;3.30;;
70535;SDS011;58089;48.752;11.338;2024-02-15T02:20:26;5.90;;;2.90;;
70535;SDS011;58089;48.752;11.338;2024-02-15T02:22:56;5.50;;;2.80;;
70535;SDS011;58089;48.752;11.338;2024-02-15T02:25:32;6.15;;;3.08;;
70535;SDS011;58089;48.752;11.338;2024-02-15T02:27:59;6.90;;;2.65;;
70535;SDS011;58089;48.752;11.338;2024-02-15T02:30:25;6.28;;;3.10;;
70535;SDS011;58089;48.752;11.338;2024-02-15T02:32:54;6.23;;;2.97;;
70535;SDS011;58089;48.752;11.338;2024-02-15T02:35:20;6.80;;;3.33;;
70535;SDS011;58089;48.752;11.338;2024-02-15T02:37:45;6.93;;;2.70;;
70535;SDS011;58089;48.752;11.338;2024-02-15T02:40:11;6.20;;;3.28;;
70535;SDS011;58089;48.752;11.338;2024-02-15T02:45:17;6.57;;;2.58;;
70535;SDS011;58089;48.752;11.338;2024-02-15T02:47:45;8.63;;;3.30;;
70535;SDS011;58089;48.752;11.338;2024-02-15T02:50:12;6.15;;;3.08;;
70535;SDS011;58089;48.752;11.338;2024-02-15T02:52:38;7.32;;;2.47;;
70535;SDS011;58089;48.752;11.338;2024-02-15T02:55:04;5.93;;;2.67;;
70535;SDS011;58089;48.752;11.338;2024-02-15T02:57:34;5.88;;;2.78;;
70535;SDS011;58089;48.752;11.338;2024-02-15T03:00:02;6.17;;;2.80;;
70535;SDS011;58089;48.752;11.338;2024-02-15T03:02:37;5.75;;;2.55;;
70535;SDS011;58089;48.752;11.338;2024-02-15T03:05:06;5.40;;;2.63;;
70535;SDS011;58089;48.752;11.338;2024-02-15T03:07:33;6.22;;;2.40;;
70535;SDS011;58089;48.752;11.338;2024-02-15T03:09:59;5.07;;;2.50;;
70535;SDS011;58089;48.752;11.338;2024-02-15T03:12:25;8.60;;;2.78;;
70535;SDS011;58089;48.752;11.338;2024-02-15T03:14:51;5.00;;;2.35;;
70535;SDS011;58089;48.752;11.338;2024-02-15T03:17:17;5.87;;;2.37;;
70535;SDS011;58089;48.752;11.338;2024-02-15T03:19:42;6.27;;;2.27;;
70535;SDS011;58089;48.752;11.338;2024-02-15T03:22:07;5.33;;;2.40;;
70535;SDS011;58089;48.752;11.338;2024-02-15T03:24:33;7.60;;;3.47;;
70535;SDS011;58089;48.752;11.338;2024-02-15T03:26:58;6.00;;;2.73;;
70535;SDS011;58089;48.752;11.338;2024-02-15T03:29:23;6.00;;;2.97;;
70535;SDS011;58089;48.752;11.338;2024-02-15T03:31:50;6.72;;;3.30;;
70535;SDS011;58089;48.752;11.338;2024-02-15T03:34:18;7.43;;;3.60;;
70535;SDS011;58089;48.752;11.338;2024-02-15T03:36:46;9.10;;;3.75;;
70535;SDS011;58089;48.752;11.338;2024-02-15T03:39:13;8.80;;;3.53;;
70535;SDS011;58089;48.752;11.338;2024-02-15T03:41:38;6.30;;;2.90;;
70535;SDS011;58089;48.752;11.338;2024-02-15T03:44:04;7.07;;;2.80;;
70535;SDS011;58089;48.752;11.338;2024-02-15T03:46:29;6.93;;;3.27;;
70535;SDS011;58089;48.752;11.338;2024-02-15T03:48:54;6.73;;;3.13;;
70535;SDS011;58089;48.752;11.338;2024-02-15T03:51:22;8.27;;;2.90;;
70535;SDS011;58089;48.752;11.338;2024-02-15T03:53:49;6.05;;;2.50;;
70535;SDS011;58089;48.752;11.338;2024-02-15T03:56:15;5.47;;;2.73;;
70535;SDS011;58089;48.752;11.338;2024-02-15T03:58:41;7.05;;;2.97;;
70535;SDS011;58089;48.752;11.338;2024-02-15T04:01:06;7.13;;;3.03;;
70535;SDS011;58089;48.752;11.338;2024-02-15T04:03:33;6.93;;;2.90;;
70535;SDS011;58089;48.752;11.338;2024-02-15T04:05:59;7.03;;;3.10;;
70535;SDS011;58089;48.752;11.338;2024-02-15T04:08:25;8.40;;;3.00;;
70535;SDS011;58089;48.752;11.338;2024-02-15T04:10:50;6.67;;;3.00;;
70535;SDS011;58089;48.752;11.338;2024-02-15T04:13:16;6.30;;;2.67;;
70535;SDS011;58089;48.752;11.338;2024-02-15T04:15:41;6.40;;;2.67;;
70535;SDS011;58089;48.752;11.338;2024-02-15T04:18:08;5.20;;;2.40;;
70535;SDS011;58089;48.752;11.338;2024-02-15T04:20:36;6.93;;;2.90;;
70535;SDS011;58089;48.752;11.338;2024-02-15T04:23:01;5.55;;;2.60;;
70535;SDS011;58089;48.752;11.338;2024-02-15T04:25:27;6.53;;;2.80;;
70535;SDS011;58089;48.752;11.338;2024-02-15T04:27:53;7.57;;;2.63;;
70535;SDS011;58089;48.752;11.338;2024-02-15T04:30:18;5.53;;;2.50;;
70535;SDS011;58089;48.752;11.338;2024-02-15T04:32:45;6.50;;;2.70;;
70535;SDS011;58089;48.752;11.338;2024-02-15T04:35:10;6.53;;;2.63;;
70535;SDS011;58089;48.752;11.338;2024-02-15T04:37:36;6.22;;;2.78;;
70535;SDS011;58089;48.752;11.338;2024-02-15T04:40:02;6.20;;;2.70;;
70535;SDS011;58089;48.752;11.338;2024-02-15T04:42:38;6.25;;;2.70;;
70535;SDS011;58089;48.752;11.338;2024-02-15T04:45:09;6.47;;;3.10;;
70535;SDS011;58089;48.752;11.338;2024-02-15T04:47:36;6.45;;;3.38;;
70535;SDS011;58089;48.752;11.338;2024-02-15T04:50:02;6.82;;;3.05;;
70535;SDS011;58089;48.752;11.338;2024-02-15T04:52:28;6.60;;;3.05;;
70535;SDS011;58089;48.752;11.338;2024-02-15T04:54:54;6.50;;;3.30;;
70535;SDS011;58089;48.752;11.338;2024-02-15T04:57:20;7.07;;;3.07;;
70535;SDS011;58089;48.752;11.338;2024-02-15T04:59:45;7.10;;;3.33;;
70535;SDS011;58089;48.752;11.338;2024-02-15T05:02:12;7.50;;;3.72;;
70535;SDS011;58089;48.752;11.338;2024-02-15T05:04:38;7.57;;;4.37;;
70535;SDS011;58089;48.752;11.338;2024-02-15T05:07:03;11.20;;;6.17;;
70535;SDS011;58089;48.752;11.338;2024-02-15T05:09:29;17.35;;;9.43;;
70535;SDS011;58089;48.752;11.338;2024-02-15T05:11:56;13.23;;;8.03;;
70535;SDS011;58089;48.752;11.338;2024-02-15T05:14:22;11.25;;;6.97;;
70535;SDS011;58089;48.752;11.338;2024-02-15T05:16:48;9.35;;;5.10;;
70535;SDS011;58089;48.752;11.338;2024-02-15T05:19:14;8.52;;;4.20;;
70535;SDS011;58089;48.752;11.338;2024-02-15T05:21:43;7.78;;;3.60;;
70535;SDS011;58089;48.752;11.338;2024-02-15T05:24:12;6.67;;;3.37;;
70535;SDS011;58089;48.752;11.338;2024-02-15T05:26:39;7.45;;;3.55;;
70535;SDS011;58089;48.752;11.338;2024-02-15T05:29:04;7.95;;;3.45;;
70535;SDS011;58089;48.752;11.338;2024-02-15T05:31:30;6.80;;;3.60;;
70535;SDS011;58089;48.752;11.338;2024-02-15T05:33:55;7.30;;;3.13;;
70535;SDS011;58089;48.752;11.338;2024-02-15T05:36:21;7.15;;;3.40;;
70535;SDS011;58089;48.752;11.338;2024-02-15T05:38:48;6.07;;;3.07;;
70535;SDS011;58089;48.752;11.338;2024-02-15T05:41:17;7.35;;;3.15;;
70535;SDS011;58089;48.752;11.338;2024-02-15T05:43:42;7.60;;;3.40;;
70535;SDS011;58089;48.752;11.338;2024-02-15T05:46:08;6.18;;;2.90;;
70535;SDS011;58089;48.752;11.338;2024-02-15T05:48:35;5.53;;;2.72;;
70535;SDS011;58089;48.752;11.338;2024-02-15T05:51:04;7.47;;;3.00;;
70535;SDS011;58089;48.752;11.338;2024-02-15T05:53:30;6.45;;;3.25;;
70535;SDS011;58089;48.752;11.338;2024-02-15T05:55:58;6.72;;;3.17;;
70535;SDS011;58089;48.752;11.338;2024-02-15T05:58:24;6.20;;;3.13;;
70535;SDS011;58089;48.752;11.338;2024-02-15T06:00:49;8.95;;;3.80;;
70535;SDS011;58089;48.752;11.338;2024-02-15T06:03:18;7.47;;;3.30;;
70535;SDS011;58089;48.752;11.338;2024-02-15T06:05:43;7.22;;;3.80;;
70535;SDS011;58089;48.752;11.338;2024-02-15T06:08:10;8.70;;;4.40;;
70535;SDS011;58089;48.752;11.338;2024-02-15T06:10:37;9.88;;;4.30;;
70535;SDS011;58089;48.752;11.338;2024-02-15T06:13:03;8.50;;;4.77;;
70535;SDS011;58089;48.752;11.338;2024-02-15T06:15:29;10.30;;;4.53;;
70535;SDS011;58089;48.752;11.338;2024-02-15T06:17:54;13.30;;;4.90;;
70535;SDS011;58089;48.752;11.338;2024-02-15T06:20:20;8.93;;;5.07;;
70535;SDS011;58089;48.752;11.338;2024-02-15T06:22:46;7.65;;;4.18;;
70535;SDS011;58089;48.752;11.338;2024-02-15T06:25:12;11.77;;;5.13;;
70535;SDS011;58089;48.752;11.338;2024-02-15T06:27:38;9.18;;;4.07;;
70535;SDS011;58089;48.752;11.338;2024-02-15T06:30:08;8.10;;;3.20;;
70535;SDS011;58089;48.752;11.338;2024-02-15T06:32:52;6.63;;;3.37;;
70535;SDS011;58089;48.752;11.338;2024-02-15T06:35:36;6.82;;;3.30;;
70535;SDS011;58089;48.752;11.338;2024-02-15T06:38:21;6.10;;;3.10;;
70535;SDS011;58089;48.752;11.338;2024-02-15T06:41:05;8.73;;;2.58;;
70535;SDS011;58089;48.752;11.338;2024-02-15T06:43:30;5.93;;;2.43;;
70535;SDS011;58089;48.752;11.338;2024-02-15T06:45:55;5.90;;;2.60;;
70535;SDS011;58089;48.752;11.338;2024-02-15T06:48:21;6.60;;;2.80;;
70535;SDS011;58089;48.752;11.338;2024-02-15T06:50:49;8.10;;;3.23;;
70535;SDS011;58089;48.752;11.338;2024-02-15T06:53:14;6.22;;;3.40;;
70535;SDS011;58089;48.752;11.338;2024-02-15T06:55:39;5.10;;;2.47;;
70535;SDS011;58089;48.752;11.338;2024-02-15T06:58:05;6.25;;;2.83;;
70535;SDS011;58089;48.752;11.338;2024-02-15T07:00:30;6.13;;;2.47;;
70535;SDS011;58089;48.752;11.338;2024-02-15T07:02:56;5.60;;;2.23;;
70535;SDS011;58089;48.752;11.338;2024-02-15T07:05:21;5.53;;;2.53;;
70535;SDS011;58089;48.752;11.338;2024-02-15T07:07:48;5.23;;;2.30;;
70535;SDS011;58089;48.752;11.338;2024-02-15T07:10:14;5.78;;;2.45;;
70535;SDS011;58089;48.752;11.338;2024-02-15T07:12:42;7.65;;;2.75;;
70535;SDS011;58089;48.752;11.338;2024-02-15T07:15:09;6.60;;;2.60;;
70535;SDS011;58089;48.752;11.338;2024-02-15T07:17:35;6.15;;;2.90;;
70535;SDS011;58089;48.752;11.338;2024-02-15T07:20:02;6.70;;;2.30;;
70535;SDS011;58089;48.752;11.338;2024-02-15T07:22:30;6.75;;;2.63;;
70535;SDS011;58089;48.752;11.338;2024-02-15T07:24:56;7.38;;;2.95;;
70535;SDS011;58089;48.752;11.338;2024-02-15T07:27:22;6.97;;;3.03;;
70535;SDS011;58089;48.752;11.338;2024-02-15T07:29:50;13.18;;;3.92;;
70535;SDS011;58089;48.752;11.338;2024-02-15T07:32:15;13.60;;;4.20;;
70535;SDS011;58089;48.752;11.338;2024-02-15T07:34:42;11.30;;;4.50;;
70535;SDS011;58089;48.752;11.338;2024-02-15T07:37:08;8.02;;;2.95;;
70535;SDS011;58089;48.752;11.338;2024-02-15T07:39:34;7.63;;;2.93;;
70535;SDS011;58089;48.752;11.338;2024-02-15T07:42:01;8.30;;;3.08;;
70535;SDS011;58089;48.752;11.338;2024-02-15T07:44:29;6.85;;;2.70;;
70535;SDS011;58089;48.752;11.338;2024-02-15T07:46:57;6.63;;;2.90;;
70535;SDS011;58089;48.752;11.338;2024-02-15T07:49:25;6.50;;;2.70;;
70535;SDS011;58089;48.752;11.338;2024-02-15T07:51:51;6.25;;;2.80;;
70535;SDS011;58089;48.752;11.338;2024-02-15T07:54:20;7.60;;;2.20;;
70535;SDS011;58089;48.752;11.338;2024-02-15T07:56:49;5.70;;;2.70;;
70535;SDS011;58089;48.752;11.338;2024-02-15T07:59:14;5.72;;;2.88;;
70535;SDS011;58089;48.752;11.338;2024-02-15T08:01:44;5.78;;;2.45;;
70535;SDS011;58089;48.752;11.338;2024-02-15T08:04:12;5.10;;;2.67;;
70535;SDS011;58089;48.752;11.338;2024-02-15T08:06:37;5.70;;;3.07;;
70535;SDS011;58089;48.752;11.338;2024-02-15T08:09:03;5.83;;;3.00;;
70535;SDS011;58089;48.752;11.338;2024-02-15T08:11:32;6.43;;;3.38;;
70535;SDS011;58089;48.752;11.338;2024-02-15T08:13:57;6.57;;;3.37;;
70535;SDS011;58089;48.752;11.338;2024-02-15T08:16:25;6.32;;;3.20;;
70535;SDS011;58089;48.752;11.338;2024-02-15T08:18:53;6.97;;;3.58;;
70535;SDS011;58089;48.752;11.338;2024-02-15T08:21:28;5.93;;;2.88;;
70535;SDS011;58089;48.752;11.338;2024-02-15T08:23:57;6.70;;;3.15;;
70535;SDS011;58089;48.752;11.338;2024-02-15T08:26:32;6.93;;;2.90;;
70535;SDS011;58089;48.752;11.338;2024-02-15T08:28:57;7.90;;;3.13;;
70535;SDS011;58089;48.752;11.338;2024-02-15T08:31:22;6.33;;;2.97;;
70535;SDS011;58089;48.752;11.338;2024-02-15T08:33:48;7.43;;;3.42;;
70535;SDS011;58089;48.752;11.338;2024-02-15T08:36:14;6.87;;;2.80;;
70535;SDS011;58089;48.752;11.338;2024-02-15T08:38:39;6.77;;;2.90;;
70535;SDS011;58089;48.752;11.338;2024-02-15T08:41:06;8.07;;;2.95;;
70535;SDS011;58089;48.752;11.338;2024-02-15T08:43:33;7.95;;;3.47;;
70535;SDS011;58089;48.752;11.338;2024-02-15T08:45:58;6.40;;;2.87;;
70535;SDS011;58089;48.752;11.338;2024-02-15T08:48:24;5.93;;;2.83;;
70535;SDS011;58089;48.752;11.338;2024-02-15T08:50:49;5.70;;;2.87;;
70535;SDS011;58089;48.752;11.338;2024-02-15T08:53:15;7.97;;;3.17;;
70535;SDS011;58089;48.752;11.338;2024-02-15T08:55:40;7.53;;;3.13;;
70535;SDS011;58089;48.752;11.338;2024-02-15T08:58:06;5.83;;;2.70;;
70535;SDS011;58089;48.752;11.338;2024-02-15T09:00:31;7.23;;;3.10;;
70535;SDS011;58089;48.752;11.338;2024-02-15T09:02:57;6.70;;;2.88;;
70535;SDS011;58089;48.752;11.338;2024-02-15T09:05:22;7.83;;;3.30;;
70535;SDS011;58089;48.752;11.338;2024-02-15T09:07:48;14.63;;;3.20;;
70535;SDS011;58089;48.752;11.338;2024-02-15T09:10:14;7.33;;;3.00;;
70535;SDS011;58089;48.752;11.338;2024-02-15T09:12:42;6.82;;;2.88;;
70535;SDS011;58089;48.752;11.338;2024-02-15T09:15:10;7.60;;;3.13;;
70535;SDS011;58089;48.752;11.338;2024-02-15T09:17:39;6.90;;;3.42;;
70535;SDS011;58089;48.752;11.338;2024-02-15T09:20:08;6.37;;;2.90;;
70535;SDS011;58089;48.752;11.338;2024-02-15T09:22:40;6.40;;;2.55;;
70535;SDS011;58089;48.752;11.338;2024-02-15T09:25:06;6.30;;;3.03;;
70535;SDS011;58089;48.752;11.338;2024-02-15T09:27:32;6.45;;;2.90;;
70535;SDS011;58089;48.752;11.338;2024-02-15T09:29:57;7.73;;;2.90;;
70535;SDS011;58089;48.752;11.338;2024-02-15T09:32:23;7.83;;;3.23;;
70535;SDS011;58089;48.752;11.338;2024-02-15T09:34:48;7.90;;;3.10;;
70535;SDS011;58089;48.752;11.338;2024-02-15T09:37:14;8.55;;;3.42;;
70535;SDS011;58089;48.752;11.338;2024-02-15T09:39:40;6.73;;;3.20;;
70535;SDS011;58089;48.752;11.338;2024-02-15T09:42:05;6.77;;;2.67;;
70535;SDS011;58089;48.752;11.338;2024-02-15T09:44:31;7.60;;;3.40;;
70535;SDS011;58089;48.752;11.338;2024-02-15T09:47:14;7.03;;;3.25;;
70535;SDS011;58089;48.752;11.338;2024-02-15T09:49:41;5.80;;;2.70;;
70535;SDS011;58089;48.752;11.338;2024-02-15T09:52:07;8.07;;;3.10;;
70535;SDS011;58089;48.752;11.338;2024-02-15T09:54:40;6.10;;;2.83;;
70535;SDS011;58089;48.752;11.338;2024-02-15T09:57:08;7.40;;;3.58;;
70535;SDS011;58089;48.752;11.338;2024-02-15T09:59:34;8.17;;;3.40;;
70535;SDS011;58089;48.752;11.338;2024-02-15T10:02:01;7.05;;;3.30;;
70535;SDS011;58089;48.752;11.338;2024-02-15T10:04:26;6.67;;;2.90;;
70535;SDS011;58089;48.752;11.338;2024-02-15T10:06:52;7.07;;;3.20;;
70535;SDS011;58089;48.752;11.338;2024-02-15T10:09:27;6.33;;;2.80;;
70535;SDS011;58089;48.752;11.338;2024-02-15T10:11:57;5.97;;;2.72;;
70535;SDS011;58089;48.752;11.338;2024-02-15T10:14:24;6.78;;;3.40;;
70535;SDS011;58089;48.752;11.338;2024-02-15T10:16:51;7.07;;;3.33;;
70535;SDS011;58089;48.752;11.338;2024-02-15T10:19:19;6.47;;;3.22;;
70535;SDS011;58089;48.752;11.338;2024-02-15T10:21:50;8.23;;;3.15;;
70535;SDS011;58089;48.752;11.338;2024-02-15T10:24:18;7.47;;;3.10;;
70535;SDS011;58089;48.752;11.338;2024-02-15T10:26:44;5.93;;;3.00;;
70535;SDS011;58089;48.752;11.338;2024-02-15T10:29:13;7.20;;;3.50;;
70535;SDS011;58089;48.752;11.338;2024-02-15T10:31:40;12.15;;;3.55;;
70535;SDS011;58089;48.752;11.338;2024-02-15T10:34:17;6.88;;;3.53;;
70535;SDS011;58089;48.752;11.338;2024-02-15T10:36:44;6.32;;;3.35;;
70535;SDS011;58089;48.752;11.338;2024-02-15T10:39:13;6.72;;;3.55;;
70535;SDS011;58089;48.752;11.338;2024-02-15T10:41:45;6.70;;;3.10;;
70535;SDS011;58089;48.752;11.338;2024-02-15T10:44:13;6.72;;;2.85;;
70535;SDS011;58089;48.752;11.338;2024-02-15T10:46:41;5.75;;;2.53;;
70535;SDS011;58089;48.752;11.338;2024-02-15T10:49:07;7.17;;;2.97;;
70535;SDS011;58089;48.752;11.338;2024-02-15T10:51:32;9.30;;;3.30;;
70535;SDS011;58089;48.752;11.338;2024-02-15T10:54:02;5.65;;;3.08;;
70535;SDS011;58089;48.752;11.338;2024-02-15T10:56:34;6.65;;;3.25;;
70535;SDS011;58089;48.752;11.338;2024-02-15T11:01:45;7.30;;;2.97;;
70535;SDS011;58089;48.752;11.338;2024-02-15T11:04:12;6.95;;;2.70;;
70535;SDS011;58089;48.752;11.338;2024-02-15T11:06:39;6.72;;;3.15;;
70535;SDS011;58089;48.752;11.338;2024-02-15T11:09:08;7.13;;;2.85;;
70535;SDS011;58089;48.752;11.338;2024-02-15T11:11:36;6.30;;;2.70;;
70535;SDS011;58089;48.752;11.338;2024-02-15T11:16:57;6.28;;;2.47;;
70535;SDS011;58089;48.752;11.338;2024-02-15T11:22:00;5.90;;;2.28;;
70535;SDS011;58089;48.752;11.338;2024-02-15T11:24:30;7.25;;;2.42;;
70535;SDS011;58089;48.752;11.338;2024-02-15T11:27:04;6.40;;;2.70;;
70535;SDS011;58089;48.752;11.338;2024-02-15T11:33:01;5.90;;;2.38;;
70535;SDS011;58089;48.752;11.338;2024-02-15T11:40:21;7.77;;;2.30;;
70535;SDS011;58089;48.752;11.338;2024-02-15T11:42:54;5.15;;;2.17;;
70535;SDS011;58089;48.752;11.338;2024-02-15T11:45:28;4.93;;;1.70;;
70535;SDS011;58089;48.752;11.338;2024-02-15T11:48:07;4.60;;;1.55;;
70535;SDS011;58089;48.752;11.338;2024-02-15T11:50:36;5.13;;;1.35;;
70535;SDS011;58089;48.752;11.338;2024-02-15T11:53:03;6.50;;;1.67;;
70535;SDS011;58089;48.752;11.338;2024-02-15T11:55:31;5.53;;;1.70;;
70535;SDS011;58089;48.752;11.338;2024-02-15T11:57:58;6.68;;;1.60;;
70535;SDS011;58089;48.752;11.338;2024-02-15T12:00:42;6.35;;;2.08;;
70535;SDS011;58089;48.752;11.338;2024-02-15T12:03:26;5.15;;;1.70;;
70535;SDS011;58089;48.752;11.338;2024-02-15T12:06:09;5.63;;;1.40;;
70535;SDS011;58089;48.752;11.338;2024-02-15T12:08:53;6.65;;;1.73;;
70535;SDS011;58089;48.752;11.338;2024-02-15T12:11:38;6.20;;;1.90;;
70535;SDS011;58089;48.752;11.338;2024-02-15T12:14:22;6.28;;;1.90;;
70535;SDS011;58089;48.752;11.338;2024-02-15T12:17:10;6.13;;;1.70;;
70535;SDS011;58089;48.752;11.338;2024-02-15T12:19:55;3.90;;;1.17;;
70535;SDS011;58089;48.752;11.338;2024-02-15T12:22:23;4.55;;;1.40;;
70535;SDS011;58089;48.752;11.338;2024-02-15T12:25:00;6.07;;;1.75;;
70535;SDS011;58089;48.752;11.338;2024-02-15T12:27:26;5.50;;;1.55;;
70535;SDS011;58089;48.752;11.338;2024-02-15T12:29:56;4.78;;;1.35;;
70535;SDS011;58089;48.752;11.338;2024-02-15T12:32:23;5.63;;;1.30;;
70535;SDS011;58089;48.752;11.338;2024-02-15T12:34:49;6.55;;;2.17;;
70535;SDS011;58089;48.752;11.338;2024-02-15T12:37:18;6.30;;;1.88;;
70535;SDS011;58089;48.752;11.338;2024-02-15T12:39:46;5.82;;;2.30;;
70535;SDS011;58089;48.752;11.338;2024-02-15T12:42:14;6.45;;;1.60;;
70535;SDS011;58089;48.752;11.338;2024-02-15T12:44:43;5.53;;;1.30;;
70535;SDS011;58089;48.752;11.338;2024-02-15T12:47:18;5.07;;;1.60;;
70535;SDS011;58089;48.752;11.338;2024-02-15T12:49:47;5.20;;;1.40;;
70535;SDS011;58089;48.752;11.338;2024-02-15T12:52:34;4.28;;;1.52;;
70535;SDS011;58089;48.752;11.338;2024-02-15T12:55:12;4.97;;;1.30;;
70535;SDS011;58089;48.752;11.338;2024-02-15T12:57:43;4.30;;;1.23;;
70535;SDS011;58089;48.752;11.338;2024-02-15T13:00:15;6.32;;;1.27;;
70535;SDS011;58089;48.752;11.338;2024-02-15T13:02:43;6.88;;;1.77;;
70535;SDS011;58089;48.752;11.338;2024-02-15T13:05:09;4.43;;;1.50;;
70535;SDS011;58089;48.752;11.338;2024-02-15T13:07:35;4.50;;;1.40;;
70535;SDS011;58089;48.752;11.338;2024-02-15T13:10:01;4.00;;;1.02;;
70535;SDS011;58089;48.752;11.338;2024-02-15T13:12:28;7.22;;;1.38;;
70535;SDS011;58089;48.752;11.338;2024-02-15T13:14:54;5.37;;;1.50;;
70535;SDS011;58089;48.752;11.338;2024-02-15T13:17:19;8.83;;;1.23;;
70535;SDS011;58089;48.752;11.338;2024-02-15T13:19:48;5.17;;;1.07;;
70535;SDS011;58089;48.752;11.338;2024-02-15T13:22:17;4.28;;;1.20;;
70535;SDS011;58089;48.752;11.338;2024-02-15T13:24:43;4.78;;;1.02;;
70535;SDS011;58089;48.752;11.338;2024-02-15T13:27:09;4.88;;;0.95;;
70535;SDS011;58089;48.752;11.338;2024-02-15T13:29:38;4.40;;;1.00;;
70535;SDS011;58089;48.752;11.338;2024-02-15T13:32:05;5.93;;;1.42;;
70535;SDS011;58089;48.752;11.338;2024-02-15T13:34:31;3.63;;;0.80;;
70535;SDS011;58089;48.752;11.338;2024-02-15T13:36:58;4.07;;;0.95;;
70535;SDS011;58089;48.752;11.338;2024-02-15T13:39:26;4.80;;;0.80;;
70535;SDS011;58089;48.752;11.338;2024-02-15T13:41:58;4.57;;;1.00;;
70535;SDS011;58089;48.752;11.338;2024-02-15T13:44:24;5.45;;;1.13;;
70535;SDS011;58089;48.752;11.338;2024-02-15T13:46:49;5.20;;;0.70;;
70535;SDS011;58089;48.752;11.338;2024-02-15T13:49:15;4.72;;;0.93;;
70535;SDS011;58089;48.752;11.338;2024-02-15T13:51:40;5.20;;;1.03;;
70535;SDS011;58089;48.752;11.338;2024-02-15T13:54:05;4.13;;;0.93;;
70535;SDS011;58089;48.752;11.338;2024-02-15T13:56:30;6.67;;;1.10;;
70535;SDS011;58089;48.752;11.338;2024-02-15T13:58:56;4.43;;;1.10;;
70535;SDS011;58089;48.752;11.338;2024-02-15T14:01:21;5.67;;;1.27;;
70535;SDS011;58089;48.752;11.338;2024-02-15T14:03:46;4.67;;;1.20;;
70535;SDS011;58089;48.752;11.338;2024-02-15T14:06:11;4.70;;;0.93;;
70535;SDS011;58089;48.752;11.338;2024-02-15T14:08:37;5.47;;;1.00;;
70535;SDS011;58089;48.752;11.338;2024-02-15T14:11:02;4.20;;;1.00;;
70535;SDS011;58089;48.752;11.338;2024-02-15T14:13:28;5.63;;;1.20;;
70535;SDS011;58089;48.752;11.338;2024-02-15T14:15:55;4.57;;;0.80;;
70535;SDS011;58089;48.752;11.338;2024-02-15T14:18:21;4.55;;;0.95;;
70535;SDS011;58089;48.752;11.338;2024-02-15T14:20:46;4.37;;;0.73;;
70535;SDS011;58089;48.752;11.338;2024-02-15T14:23:12;4.13;;;0.80;;
70535;SDS011;58089;48.752;11.338;2024-02-15T14:25:41;4.20;;;0.90;;
70535;SDS011;58089;48.752;11.338;2024-02-15T14:28:07;3.50;;;0.90;;
70535;SDS011;58089;48.752;11.338;2024-02-15T14:30:36;5.05;;;0.80;;
70535;SDS011;58089;48.752;11.338;2024-02-15T14:33:20;4.72;;;1.05;;
70535;SDS011;58089;48.752;11.338;2024-02-15T14:35:48;7.40;;;1.40;;
70535;SDS011;58089;48.752;11.338;2024-02-15T14:38:13;4.32;;;0.90;;
70535;SDS011;58089;48.752;11.338;2024-02-15T14:40:44;4.45;;;1.10;;
70535;SDS011;58089;48.752;11.338;2024-02-15T14:43:11;4.47;;;0.80;;
70535;SDS011;58089;48.752;11.338;2024-02-15T14:45:38;4.00;;;0.80;;
70535;SDS011;58089;48.752;11.338;2024-02-15T14:48:05;4.23;;;1.00;;
70535;SDS011;58089;48.752;11.338;2024-02-15T14:50:38;4.32;;;0.73;;
70535;SDS011;58089;48.752;11.338;2024-02-15T14:53:07;5.10;;;0.77;;
70535;SDS011;58089;48.752;11.338;2024-02-15T14:55:35;3.70;;;0.80;;